Aviation Digital Data Service (ADDS)

Output produced by METARs form (0723 UTC 29 March 2015)
found at http://aviationweather.gov/adds/metars/
 
KDEN 290721Z 2907/3012 28012KT P6SM FEW110 
     FM290830 35016G26KT P6SM FEW110 
     FM291400 02014KT P6SM FEW080 SCT150 
     FM291900 11008KT P6SM FEW080 SCT150 
     FM300100 15007KT P6SM SCT150 SCT220 
     FM300500 20010KT P6SM FEW120 SCT200